Terminal Aerodrome Forecast
Issued by NWS

Home | Current Version | Previous Version | Text Only | Print | Product List | Glossary On
Versions: 1 2 3 4 5 6 7 8 9 10 11 12 13 14 15 16 17 18 19 20 21 22 23 24 25
704
FTUS46 KMTR 301504 AAB
TAFSFO
TAF AMD
KSFO 301504Z 3015/3118 28024G31KT P6SM FEW020
     FM302200 30026G34KT P6SM FEW030 SCT250
     FM310500 29020G28KT P6SM FEW015 SCT030 SCT250
     FM310900 30016G22KT P6SM SKC
     FM311500 33015KT P6SM FEW150=

USA.gov is the U.S. government's official web portal to all federal, state and local government web resources and services.